createdAt,value
2019-04-25T00:00:13.247Z,12.30
2019-04-25T00:01:49.113Z,12.32
2019-04-25T00:03:25.140Z,12.34
2019-04-25T00:04:59.348Z,12.32
2019-04-25T00:06:34.748Z,12.25
2019-04-25T00:08:11.463Z,12.14
2019-04-25T00:09:51.721Z,12.07
2019-04-25T00:11:26.674Z,12.04
2019-04-25T00:13:01.696Z,12.01
2019-04-25T00:14:38.071Z,12.01
2019-04-25T00:16:12.906Z,11.99
2019-04-25T00:17:47.144Z,11.93
2019-04-25T00:19:21.867Z,11.88
2019-04-25T00:20:57.887Z,11.86
2019-04-25T00:22:36.504Z,11.88
2019-04-25T00:24:18.655Z,11.90
2019-04-25T00:26:01.366Z,11.91
2019-04-25T00:27:35.840Z,11.93
2019-04-25T00:29:10.292Z,11.90
2019-04-25T00:30:44.692Z,11.90
2019-04-25T00:32:21.582Z,11.89
2019-04-25T00:33:56.145Z,11.91
2019-04-25T00:35:31.548Z,11.90
2019-04-25T00:37:07.644Z,11.90
2019-04-25T00:38:46.230Z,11.92
2019-04-25T00:40:18.324Z,11.95
2019-04-25T00:41:53.567Z,11.96
2019-04-25T00:43:28.702Z,11.98
2019-04-25T00:45:03.440Z,11.98
2019-04-25T00:46:37.672Z,11.96
2019-04-25T00:48:12.277Z,11.96
2019-04-25T00:49:46.668Z,11.89
2019-04-25T00:51:21.737Z,11.79
2019-04-25T00:52:56.136Z,11.70
2019-04-25T00:54:31.319Z,11.65
2019-04-25T00:56:05.649Z,11.63
2019-04-25T00:57:42.686Z,11.61
2019-04-25T00:59:32.093Z,11.59
2019-04-25T01:01:12.078Z,11.59
2019-04-25T01:02:49.584Z,11.60
2019-04-25T01:04:24.284Z,11.61
2019-04-25T01:05:58.537Z,11.63
2019-04-25T01:07:34.479Z,11.65
2019-04-25T01:09:10.366Z,11.66
2019-04-25T01:10:45.847Z,11.67
2019-04-25T01:12:21.583Z,11.65
2019-04-25T01:13:56.152Z,11.66
2019-04-25T01:15:31.442Z,11.61
2019-04-25T01:17:05.796Z,11.54
2019-04-25T01:18:40.024Z,11.54
2019-04-25T01:20:15.507Z,11.55
2019-04-25T01:21:49.760Z,11.53
2019-04-25T01:23:24.132Z,11.49
2019-04-25T01:24:58.370Z,11.47
2019-04-25T01:26:33.862Z,11.44
2019-04-25T01:28:08.182Z,11.39
2019-04-25T01:29:42.477Z,11.41
2019-04-25T01:31:18.497Z,11.41
2019-04-25T01:32:54.283Z,11.44
2019-04-25T01:34:34.252Z,11.43
2019-04-25T01:36:26.661Z,11.42
2019-04-25T01:38:11.669Z,11.42
2019-04-25T01:39:55.069Z,11.40
2019-04-25T01:41:31.280Z,11.40
2019-04-25T01:43:13.784Z,11.39
2019-04-25T01:44:50.112Z,11.39
2019-04-25T01:46:24.447Z,11.41
2019-04-25T01:47:58.665Z,11.42
2019-04-25T01:49:33.948Z,11.45
2019-04-25T01:51:08.548Z,11.48
2019-04-25T01:52:50.683Z,11.50
2019-04-25T01:54:26.445Z,11.52
2019-04-25T01:56:05.491Z,11.55
2019-04-25T01:57:36.713Z,11.56
2019-04-25T01:59:10.928Z,11.55
2019-04-25T02:00:51.345Z,11.54
2019-04-25T02:02:26.793Z,11.53
2019-04-25T02:04:03.256Z,11.52
2019-04-25T02:05:37.466Z,11.51
2019-04-25T02:07:13.435Z,11.49
2019-04-25T02:08:47.762Z,11.48
2019-04-25T02:10:23.399Z,11.44
2019-04-25T02:11:59.716Z,11.34
2019-04-25T02:13:35.783Z,11.29
2019-04-25T02:15:11.110Z,11.23
2019-04-25T02:16:45.388Z,11.18
2019-04-25T02:18:19.616Z,11.15
2019-04-25T02:19:55.499Z,11.12
2019-04-25T02:21:29.802Z,11.07
2019-04-25T02:23:04.455Z,11.05
2019-04-25T02:24:38.710Z,11.04
2019-04-25T02:26:18.178Z,11.05
2019-04-25T02:27:49.432Z,11.06
2019-04-25T02:29:23.703Z,11.02
2019-04-25T02:31:00.614Z,10.96
2019-04-25T02:32:36.784Z,10.90
2019-04-25T02:34:09.956Z,10.88
2019-04-25T02:35:46.659Z,10.81
2019-04-25T02:37:20.716Z,10.72
2019-04-25T02:38:58.531Z,10.62
2019-04-25T02:40:30.818Z,10.53
2019-04-25T02:42:07.881Z,10.49
2019-04-25T02:43:41.623Z,10.47
2019-04-25T02:45:24.531Z,10.42
2019-04-25T02:47:14.811Z,10.41
2019-04-25T02:49:02.636Z,10.43
2019-04-25T02:50:40.384Z,10.42
2019-04-25T02:52:24.455Z,10.43
2019-04-25T02:53:59.496Z,10.44
2019-04-25T02:55:36.884Z,10.47
2019-04-25T02:57:09.917Z,10.50
2019-04-25T02:58:44.451Z,10.53
2019-04-25T03:00:25.257Z,10.55
2019-04-25T03:02:00.749Z,10.55
2019-04-25T03:03:35.367Z,10.57
2019-04-25T03:05:10.176Z,10.58
2019-04-25T03:06:45.645Z,10.56
2019-04-25T03:08:20.084Z,10.50
2019-04-25T03:09:54.887Z,10.46
2019-04-25T03:11:29.332Z,10.43
2019-04-25T03:13:07.045Z,10.41
2019-04-25T03:14:39.829Z,10.40
2019-04-25T03:16:14.252Z,10.42
2019-04-25T03:17:49.302Z,10.44
2019-04-25T03:19:43.801Z,10.42
2019-04-25T03:21:18.985Z,10.40
2019-04-25T03:22:54.735Z,10.38
2019-04-25T03:24:29.117Z,10.38
2019-04-25T03:26:05.806Z,10.40
2019-04-25T03:27:40.168Z,10.43
2019-04-25T03:29:14.406Z,10.45
2019-04-25T03:30:48.690Z,10.44
2019-04-25T03:32:27.996Z,10.48
2019-04-25T03:33:58.794Z,10.50
2019-04-25T03:35:33.256Z,10.51
2019-04-25T03:37:07.711Z,10.54
2019-04-25T03:38:42.131Z,10.55
2019-04-25T03:40:16.384Z,10.55
2019-04-25T03:41:50.612Z,10.53
2019-04-25T03:43:24.880Z,10.52
2019-04-25T03:44:59.624Z,10.50
2019-04-25T03:46:34.133Z,10.54
2019-04-25T03:48:08.385Z,10.58
2019-04-25T03:49:43.462Z,10.63
2019-04-25T03:51:17.994Z,10.68
2019-04-25T03:52:53.925Z,10.73
2019-04-25T03:54:28.265Z,10.76
2019-04-25T03:56:04.474Z,10.79
2019-04-25T03:57:38.412Z,10.84
2019-04-25T03:59:14.692Z,10.87
2019-04-25T04:00:48.507Z,10.91
2019-04-25T04:02:23.511Z,10.90
2019-04-25T04:03:57.917Z,10.89
2019-04-25T04:05:32.142Z,10.91
2019-04-25T04:07:08.812Z,10.95
2019-04-25T04:08:42.243Z,11.01
2019-04-25T04:10:16.500Z,11.08
2019-04-25T04:11:50.725Z,11.11
2019-04-25T04:13:25.021Z,11.14
2019-04-25T04:14:59.304Z,11.15
2019-04-25T04:16:35.468Z,11.17
2019-04-25T04:18:11.339Z,11.21
2019-04-25T04:19:47.201Z,11.26
2019-04-25T04:21:23.570Z,11.36
2019-04-25T04:23:09.230Z,11.43
2019-04-25T04:24:45.060Z,11.54
2019-04-25T04:26:19.448Z,11.60
2019-04-25T04:27:54.353Z,11.71
2019-04-25T04:29:29.250Z,11.76
2019-04-25T04:31:03.744Z,11.89
2019-04-25T04:32:38.233Z,12.02
2019-04-25T04:34:14.345Z,12.05
2019-04-25T04:35:48.372Z,12.14
2019-04-25T04:37:24.453Z,12.27
2019-04-25T04:38:58.676Z,12.40
2019-04-25T04:40:36.145Z,12.54
2019-04-25T04:42:10.317Z,12.71
2019-04-25T04:43:44.622Z,12.88
2019-04-25T04:45:18.852Z,13.06
2019-04-25T04:46:53.827Z,13.15
2019-04-25T04:48:28.156Z,13.24
2019-04-25T04:50:03.895Z,13.28
2019-04-25T04:51:38.172Z,13.27
2019-04-25T04:53:14.712Z,13.25
2019-04-25T04:54:48.311Z,13.20
2019-04-25T04:56:23.962Z,13.18
2019-04-25T04:57:58.424Z,13.21
2019-04-25T04:59:33.733Z,13.35
2019-04-25T05:01:08.177Z,13.48
2019-04-25T05:02:59.762Z,13.66
2019-04-25T05:04:41.441Z,13.89
2019-04-25T05:06:17.409Z,14.00
2019-04-25T05:07:53.911Z,14.22
2019-04-25T05:09:28.514Z,14.35
2019-04-25T05:11:04.051Z,14.46
2019-04-25T05:12:38.420Z,14.65
2019-04-25T05:14:14.741Z,14.83
2019-04-25T05:15:48.524Z,14.88
2019-04-25T05:17:23.728Z,15.03
2019-04-25T05:18:58.965Z,15.20
2019-04-25T05:20:34.192Z,15.31
2019-04-25T05:22:09.101Z,15.39
2019-04-25T05:23:44.310Z,15.61
2019-04-25T05:25:19.133Z,15.74
2019-04-25T05:26:54.008Z,15.88
2019-04-25T05:28:28.273Z,16.02
2019-04-25T05:30:04.018Z,16.18
2019-04-25T05:31:40.045Z,16.30
2019-04-25T05:33:17.617Z,16.46
2019-04-25T05:34:53.252Z,16.61
2019-04-25T05:36:29.404Z,16.93
2019-04-25T05:38:03.637Z,17.25
2019-04-25T05:39:37.904Z,17.29
2019-04-25T05:41:16.894Z,17.31
2019-04-25T05:42:54.237Z,17.51
2019-04-25T05:44:28.547Z,17.80
2019-04-25T05:46:04.327Z,18.08
2019-04-25T05:47:38.944Z,18.37
2019-04-25T05:49:13.810Z,18.58
2019-04-25T05:50:48.964Z,18.80
2019-04-25T05:52:24.282Z,19.17
2019-04-25T05:53:59.101Z,19.45
2019-04-25T05:55:34.194Z,19.72
2019-04-25T05:57:08.652Z,19.90
2019-04-25T05:58:43.929Z,19.73
2019-04-25T06:00:19.032Z,19.63
2019-04-25T06:01:53.828Z,19.86
2019-04-25T06:03:28.277Z,19.90
2019-04-25T06:05:03.586Z,19.67
2019-04-25T06:06:38.476Z,19.73
2019-04-25T06:08:14.154Z,20.00
2019-04-25T06:09:50.260Z,20.24
2019-04-25T06:11:33.549Z,20.45
2019-04-25T06:13:15.434Z,20.36
2019-04-25T06:14:49.716Z,20.33
2019-04-25T06:16:27.052Z,20.56
2019-04-25T06:18:06.101Z,21.04
2019-04-25T06:19:43.438Z,21.44
2019-04-25T06:21:18.019Z,21.44
2019-04-25T06:23:10.632Z,21.55
2019-04-25T06:24:46.508Z,21.99
2019-04-25T06:26:31.864Z,22.18
2019-04-25T06:28:01.436Z,22.18
2019-04-25T06:29:35.676Z,22.51
2019-04-25T06:31:10.478Z,22.75
2019-04-25T06:32:44.933Z,23.17
2019-04-25T06:34:20.012Z,23.39
2019-04-25T06:35:54.766Z,23.79
2019-04-25T06:37:30.341Z,24.19
2019-04-25T06:39:06.977Z,24.16
2019-04-25T06:40:41.208Z,23.99
2019-04-25T06:42:15.441Z,23.77
2019-04-25T06:43:51.360Z,24.13
2019-04-25T06:45:29.002Z,24.23
2019-04-25T06:47:17.032Z,24.43
2019-04-25T06:48:56.155Z,24.84
2019-04-25T06:50:30.428Z,25.14
2019-04-25T06:52:04.668Z,25.52
2019-04-25T06:53:38.965Z,25.94
2019-04-25T06:55:14.090Z,26.22
2019-04-25T06:56:48.760Z,26.51
2019-04-25T06:58:25.641Z,26.71
2019-04-25T06:59:58.857Z,26.59
2019-04-25T07:01:34.627Z,26.81
2019-04-25T07:03:09.052Z,26.64
2019-04-25T07:04:43.536Z,26.59
2019-04-25T07:06:19.156Z,26.75
2019-04-25T07:07:53.480Z,26.66
2019-04-25T07:09:29.535Z,26.55
2019-04-25T07:11:04.201Z,26.57
2019-04-25T07:12:38.432Z,26.83
2019-04-25T07:14:14.236Z,27.10
2019-04-25T07:15:48.714Z,27.57
2019-04-25T07:17:24.166Z,28.09
2019-04-25T07:18:58.824Z,28.25
2019-04-25T07:20:34.537Z,28.29
2019-04-25T07:22:09.081Z,28.43
2019-04-25T07:23:46.145Z,28.47
2019-04-25T07:25:20.700Z,28.66
2019-04-25T07:27:13.770Z,28.70
2019-04-25T07:28:49.667Z,28.59
2019-04-25T07:30:49.986Z,28.55
2019-04-25T07:32:18.332Z,28.88
2019-04-25T07:33:54.184Z,28.97
2019-04-25T07:35:29.026Z,29.04
2019-04-25T07:37:03.516Z,29.00
2019-04-25T07:38:37.675Z,29.12
2019-04-25T07:40:13.935Z,29.43
2019-04-25T07:41:48.655Z,29.62
2019-04-25T07:43:23.384Z,29.89
2019-04-25T07:44:58.099Z,29.85
2019-04-25T07:46:37.253Z,29.80
2019-04-25T07:48:08.588Z,29.79
2019-04-25T07:49:43.383Z,30.08
2019-04-25T07:51:17.568Z,30.35
2019-04-25T07:52:51.766Z,30.33
2019-04-25T07:54:27.530Z,30.58
2019-04-25T07:56:01.882Z,30.50
2019-04-25T07:57:36.304Z,30.06
2019-04-25T07:59:10.633Z,30.10
2019-04-25T08:00:44.844Z,30.21
2019-04-25T08:02:19.120Z,30.36
2019-04-25T08:03:53.750Z,30.51
2019-04-25T08:05:29.495Z,30.51
2019-04-25T08:07:04.214Z,30.42
2019-04-25T08:08:38.358Z,30.54
2019-04-25T08:10:14.742Z,31.02
2019-04-25T08:11:48.989Z,30.71
2019-04-25T08:13:24.167Z,30.41
2019-04-25T08:15:15.356Z,30.61
2019-04-25T08:16:51.216Z,30.65
2019-04-25T08:18:25.572Z,30.61
2019-04-25T08:19:59.779Z,30.77
2019-04-25T08:21:34.457Z,30.89
2019-04-25T08:23:09.913Z,30.18
2019-04-25T08:24:44.285Z,29.54
2019-04-25T08:26:18.545Z,29.41
2019-04-25T08:27:53.530Z,30.39
2019-04-25T08:29:28.620Z,30.43
2019-04-25T08:31:03.575Z,30.27
2019-04-25T08:32:37.954Z,30.08
2019-04-25T08:34:12.166Z,30.39
2019-04-25T08:36:03.432Z,30.73
2019-04-25T08:37:24.031Z,30.86
2019-04-25T08:38:58.375Z,30.93
2019-04-25T08:40:35.007Z,30.56
2019-04-25T08:42:08.453Z,30.49
2019-04-25T08:43:44.952Z,30.92
2019-04-25T08:45:19.292Z,31.22
2019-04-25T08:46:54.009Z,31.54
2019-04-25T08:48:30.478Z,31.91
2019-04-25T08:50:26.694Z,32.39
2019-04-25T08:51:55.553Z,32.87
2019-04-25T08:53:31.579Z,33.08
2019-04-25T08:55:09.072Z,32.59
2019-04-25T08:56:43.972Z,32.85
2019-04-25T08:58:37.722Z,32.70
2019-04-25T09:00:17.624Z,32.93
2019-04-25T09:01:53.613Z,33.14
2019-04-25T09:03:45.621Z,33.30
2019-04-25T09:05:24.453Z,33.31
2019-04-25T09:06:58.737Z,33.02
2019-04-25T09:08:35.471Z,33.18
2019-04-25T09:10:09.256Z,32.96
2019-04-25T09:11:44.625Z,32.86
2019-04-25T09:13:19.444Z,32.92
2019-04-25T09:14:54.216Z,32.70
2019-04-25T09:16:28.632Z,32.22
2019-04-25T09:18:04.052Z,31.99
2019-04-25T09:19:38.504Z,31.52
2019-04-25T09:21:13.762Z,31.19
2019-04-25T09:22:48.187Z,30.61
2019-04-25T09:24:22.398Z,30.88
2019-04-25T09:25:56.608Z,31.01
2019-04-25T09:27:30.873Z,31.07
2019-04-25T09:29:16.925Z,31.46
2019-04-25T09:30:42.433Z,31.78
2019-04-25T09:32:18.753Z,31.81
2019-04-25T09:33:54.604Z,32.24
2019-04-25T09:35:28.855Z,32.80
2019-04-25T09:37:03.553Z,33.05
2019-04-25T09:38:37.769Z,33.05
2019-04-25T09:40:15.836Z,32.24
2019-04-25T09:41:50.121Z,32.00
2019-04-25T09:43:24.401Z,31.95
2019-04-25T09:45:05.964Z,32.47
2019-04-25T09:46:40.788Z,32.91
2019-04-25T09:48:34.356Z,33.33
2019-04-25T09:50:10.980Z,33.17
2019-04-25T09:51:47.032Z,32.43
2019-04-25T09:53:23.776Z,31.75
2019-04-25T09:54:58.821Z,31.75
2019-04-25T09:56:34.706Z,31.36
2019-04-25T09:58:10.556Z,31.50
2019-04-25T09:59:46.257Z,31.71
2019-04-25T10:01:21.618Z,32.21
2019-04-25T10:02:56.072Z,31.85
2019-04-25T10:04:30.280Z,31.81
2019-04-25T10:06:05.171Z,31.55
2019-04-25T10:07:39.451Z,31.23
2019-04-25T10:09:15.596Z,30.45
2019-04-25T10:10:49.620Z,29.66
2019-04-25T10:12:23.825Z,29.74
2019-04-25T10:14:19.357Z,29.84
2019-04-25T10:15:59.098Z,30.06
2019-04-25T10:17:33.793Z,29.88
2019-04-25T10:19:08.322Z,29.37
2019-04-25T10:20:43.480Z,29.31
2019-04-25T10:22:18.487Z,29.12
2019-04-25T10:23:53.481Z,28.91
2019-04-25T10:25:27.789Z,28.72
2019-04-25T10:27:03.643Z,28.27
2019-04-25T10:28:39.615Z,28.39
2019-04-25T10:30:20.557Z,28.42
2019-04-25T10:31:55.453Z,28.09
2019-04-25T10:33:28.664Z,27.85
2019-04-25T10:35:03.185Z,27.86
2019-04-25T10:36:39.778Z,27.66
2019-04-25T10:38:14.335Z,27.44
2019-04-25T10:39:48.953Z,27.24
2019-04-25T10:41:24.479Z,27.01
2019-04-25T10:42:58.816Z,26.94
2019-04-25T10:44:33.838Z,26.71
2019-04-25T10:46:10.977Z,26.64
2019-04-25T10:47:45.323Z,26.53
2019-04-25T10:49:19.816Z,26.40
2019-04-25T10:50:55.721Z,26.21
2019-04-25T10:52:30.062Z,25.96
2019-04-25T10:54:04.426Z,26.02
2019-04-25T10:55:38.616Z,26.24
2019-04-25T10:57:12.833Z,26.28
2019-04-25T10:58:47.932Z,26.05
2019-04-25T11:00:28.476Z,25.91
2019-04-25T11:02:04.026Z,25.97
2019-04-25T11:03:41.193Z,26.13
2019-04-25T11:05:17.163Z,26.15
2019-04-25T11:06:51.746Z,26.15
2019-04-25T11:08:26.125Z,26.29
2019-04-25T11:10:00.332Z,26.30
2019-04-25T11:11:35.943Z,26.38
2019-04-25T11:13:10.196Z,26.42
2019-04-25T11:14:44.412Z,26.55
2019-04-25T11:16:18.700Z,26.57
2019-04-25T11:17:54.834Z,26.46
2019-04-25T11:19:28.868Z,26.61
2019-04-25T11:21:04.301Z,26.70
2019-04-25T11:22:39.435Z,26.83
2019-04-25T11:24:14.288Z,26.68
2019-04-25T11:25:48.765Z,26.39
2019-04-25T11:27:23.954Z,26.26
2019-04-25T11:28:58.619Z,26.27
2019-04-25T11:30:33.112Z,26.34
2019-04-25T11:32:07.378Z,26.17
2019-04-25T11:33:41.592Z,26.03
2019-04-25T11:35:15.909Z,25.91
2019-04-25T11:36:50.737Z,25.87
2019-04-25T11:38:42.674Z,26.02
2019-04-25T11:40:19.966Z,26.07
2019-04-25T11:41:55.540Z,26.15
2019-04-25T11:43:30.183Z,26.03
2019-04-25T11:45:07.621Z,26.03
2019-04-25T11:46:43.448Z,26.00
2019-04-25T11:48:17.820Z,26.05
2019-04-25T11:49:52.158Z,26.09
2019-04-25T11:51:26.369Z,26.10
2019-04-25T11:53:00.974Z,26.02
2019-04-25T11:54:35.224Z,25.93
2019-04-25T11:56:09.444Z,26.17
2019-04-25T11:57:47.334Z,26.44
2019-04-25T11:59:19.613Z,26.45
2019-04-25T12:00:56.460Z,26.21
2019-04-25T12:02:30.228Z,26.25
2019-04-25T12:04:04.580Z,26.28
2019-04-25T12:05:38.793Z,26.33
2019-04-25T12:07:14.339Z,26.17
2019-04-25T12:08:49.095Z,26.04
2019-04-25T12:10:24.544Z,26.16
2019-04-25T12:11:58.824Z,26.22
2019-04-25T12:13:34.534Z,26.37
2019-04-25T12:15:08.956Z,26.40
2019-04-25T12:16:46.153Z,26.49
2019-04-25T12:18:19.073Z,26.53
2019-04-25T12:19:54.654Z,26.43
2019-04-25T12:21:29.336Z,26.41
2019-04-25T12:23:09.981Z,26.49
2019-04-25T12:24:40.013Z,26.44
2019-04-25T12:26:14.350Z,26.39
2019-04-25T12:27:49.960Z,26.23
2019-04-25T12:29:24.507Z,26.20
2019-04-25T12:30:58.832Z,26.21
2019-04-25T12:32:35.033Z,26.32
2019-04-25T12:34:08.889Z,26.38
2019-04-25T12:35:43.680Z,26.30
2019-04-25T12:37:18.585Z,26.21
2019-04-25T12:38:54.536Z,26.13
2019-04-25T12:40:28.714Z,26.02
2019-04-25T12:42:04.309Z,26.01
2019-04-25T12:43:40.464Z,26.17
2019-04-25T12:45:16.462Z,26.43
2019-04-25T12:46:52.830Z,26.38
2019-04-25T12:48:28.184Z,26.32
2019-04-25T12:50:03.966Z,26.22
2019-04-25T12:51:38.516Z,26.30
2019-04-25T12:53:13.953Z,26.46
2019-04-25T12:54:49.167Z,26.59
2019-04-25T12:56:25.080Z,26.56
2019-04-25T12:57:59.351Z,26.39
2019-04-25T12:59:33.563Z,26.24
2019-04-25T13:01:08.392Z,26.16
2019-04-25T13:02:44.591Z,26.09
2019-04-25T13:04:18.782Z,26.12
2019-04-25T13:05:54.023Z,26.13
2019-04-25T13:07:28.332Z,26.02
2019-04-25T13:09:04.271Z,25.96
2019-04-25T13:10:38.592Z,26.05
2019-04-25T13:12:14.977Z,26.13
2019-04-25T13:13:49.572Z,26.14
2019-04-25T13:15:25.796Z,26.20
2019-04-25T13:17:00.063Z,26.11
2019-04-25T13:18:34.284Z,26.14
2019-04-25T13:20:09.003Z,26.19
2019-04-25T13:21:43.343Z,26.24
2019-04-25T13:23:17.680Z,26.11
2019-04-25T13:24:51.887Z,26.01
2019-04-25T13:26:28.076Z,25.84
2019-04-25T13:28:09.883Z,25.85
2019-04-25T13:29:54.875Z,25.92
2019-04-25T13:31:36.473Z,26.01
2019-04-25T13:33:27.725Z,26.01
2019-04-25T13:35:23.403Z,26.00
2019-04-25T13:36:58.135Z,26.03
2019-04-25T13:38:32.630Z,25.82
2019-04-25T13:40:08.513Z,25.74
2019-04-25T13:41:44.620Z,25.93
2019-04-25T13:43:19.005Z,26.10
2019-04-25T13:44:54.305Z,26.03
2019-04-25T13:46:29.160Z,25.88
2019-04-25T13:48:05.010Z,25.83
2019-04-25T13:49:39.273Z,25.82
2019-04-25T13:51:14.158Z,25.80
2019-04-25T13:52:48.544Z,25.86
2019-04-25T13:54:24.039Z,25.80
2019-04-25T13:55:58.681Z,25.73
2019-04-25T13:57:33.201Z,25.72
2019-04-25T13:59:08.607Z,25.73
2019-04-25T14:00:44.201Z,25.75
2019-04-25T14:02:18.644Z,25.89
2019-04-25T14:03:54.265Z,25.86
2019-04-25T14:05:28.669Z,25.90
2019-04-25T14:07:02.981Z,25.84
2019-04-25T14:08:37.185Z,25.83
2019-04-25T14:10:11.617Z,25.80
2019-04-25T14:11:46.004Z,25.80
2019-04-25T14:13:21.161Z,25.82
2019-04-25T14:14:56.296Z,25.75
2019-04-25T14:16:34.981Z,25.77
2019-04-25T14:18:13.787Z,25.66
2019-04-25T14:20:06.264Z,25.59
2019-04-25T14:21:40.559Z,25.62
2019-04-25T14:23:15.156Z,25.55
2019-04-25T14:24:49.388Z,25.47
2019-04-25T14:26:25.090Z,25.48
2019-04-25T14:27:59.272Z,25.45
2019-04-25T14:29:33.536Z,25.45
2019-04-25T14:31:09.456Z,25.48
2019-04-25T14:32:43.740Z,25.59
2019-04-25T14:34:17.969Z,25.78
2019-04-25T14:35:53.340Z,25.89
2019-04-25T14:37:31.774Z,25.90
2019-04-25T14:39:05.516Z,25.89
2019-04-25T14:40:42.165Z,25.91
2019-04-25T14:42:15.593Z,25.86
2019-04-25T14:43:49.847Z,25.86
2019-04-25T14:45:24.464Z,25.79
2019-04-25T14:47:00.378Z,25.77
2019-04-25T14:48:34.633Z,25.72
2019-04-25T14:50:09.144Z,25.62
2019-04-25T14:51:43.432Z,25.58
2019-04-25T14:53:17.668Z,25.46
2019-04-25T14:54:58.984Z,25.43
2019-04-25T14:56:46.682Z,25.35
2019-04-25T14:58:22.884Z,25.31
2019-04-25T14:59:57.756Z,25.36
2019-04-25T15:01:44.006Z,25.32
2019-04-25T15:03:08.132Z,25.35
2019-04-25T15:04:42.721Z,25.31
2019-04-25T15:06:17.000Z,25.23
2019-04-25T15:07:51.262Z,25.17
2019-04-25T15:09:26.730Z,25.09
2019-04-25T15:11:01.160Z,25.05
2019-04-25T15:12:35.380Z,25.00
2019-04-25T15:14:09.674Z,24.95
2019-04-25T15:15:43.880Z,24.99
2019-04-25T15:17:18.710Z,25.00
2019-04-25T15:18:52.931Z,25.08
2019-04-25T15:20:28.253Z,25.14
2019-04-25T15:22:02.781Z,25.20
2019-04-25T15:23:37.000Z,25.17
2019-04-25T15:25:11.221Z,25.15
2019-04-25T15:26:45.520Z,25.08
2019-04-25T15:28:19.777Z,25.06
2019-04-25T15:29:53.999Z,25.08
2019-04-25T15:31:30.125Z,24.99
2019-04-25T15:33:04.466Z,24.90
2019-04-25T15:34:42.826Z,24.90
2019-04-25T15:36:18.673Z,24.88
2019-04-25T15:38:03.890Z,24.83
2019-04-25T15:39:58.477Z,24.73
2019-04-25T15:41:37.484Z,24.60
2019-04-25T15:43:31.461Z,24.50
2019-04-25T15:45:11.229Z,24.44
2019-04-25T15:46:47.082Z,24.39
2019-04-25T15:48:21.300Z,24.39
2019-04-25T15:49:55.508Z,24.33
2019-04-25T15:51:29.962Z,24.29
2019-04-25T15:53:04.150Z,24.24
2019-04-25T15:54:38.365Z,24.24
2019-04-25T15:56:12.575Z,24.19
2019-04-25T15:57:46.825Z,24.15
2019-04-25T15:59:21.040Z,24.13
2019-04-25T16:00:55.930Z,24.10
2019-04-25T16:02:32.393Z,24.08
2019-04-25T16:04:06.751Z,24.09
2019-04-25T16:05:41.288Z,24.12
2019-04-25T16:07:15.772Z,24.13
2019-04-25T16:08:50.063Z,24.17
2019-04-25T16:10:24.318Z,24.16
2019-04-25T16:11:58.532Z,24.11
2019-04-25T16:13:32.797Z,24.05
2019-04-25T16:15:08.489Z,24.03
2019-04-25T16:16:42.701Z,24.00
2019-04-25T16:18:16.977Z,23.89
2019-04-25T16:19:51.245Z,23.82
2019-04-25T16:21:25.542Z,23.79
2019-04-25T16:23:05.394Z,23.75
2019-04-25T16:24:39.755Z,23.70
2019-04-25T16:26:14.473Z,23.69
2019-04-25T16:27:48.691Z,23.71
2019-04-25T16:29:22.917Z,23.69
2019-04-25T16:30:57.188Z,23.60
2019-04-25T16:32:32.386Z,23.56
2019-04-25T16:34:06.874Z,23.53
2019-04-25T16:35:41.153Z,23.49
2019-04-25T16:37:15.367Z,23.46
2019-04-25T16:38:49.629Z,23.41
2019-04-25T16:40:24.221Z,23.34
2019-04-25T16:41:58.504Z,23.28
2019-04-25T16:43:35.201Z,23.24
2019-04-25T16:45:09.594Z,23.23
2019-04-25T16:46:44.128Z,23.23
2019-04-25T16:48:18.804Z,23.17
2019-04-25T16:49:53.735Z,23.15
2019-04-25T16:51:28.334Z,23.10
2019-04-25T16:53:02.936Z,23.06
2019-04-25T16:54:38.051Z,23.02
2019-04-25T16:56:12.917Z,22.99
2019-04-25T16:57:47.127Z,22.96
2019-04-25T16:59:21.362Z,22.89
2019-04-25T17:00:57.242Z,22.83
2019-04-25T17:02:35.730Z,22.77
2019-04-25T17:04:08.345Z,22.72
2019-04-25T17:05:43.029Z,22.65
2019-04-25T17:07:20.484Z,22.59
2019-04-25T17:08:54.783Z,22.52
2019-04-25T17:10:28.992Z,22.47
2019-04-25T17:12:03.592Z,22.43
2019-04-25T17:13:39.498Z,22.40
2019-04-25T17:15:32.077Z,22.36
2019-04-25T17:17:16.941Z,22.27
2019-04-25T17:19:05.292Z,22.20
2019-04-25T17:20:41.780Z,22.13
2019-04-25T17:22:16.044Z,22.12
2019-04-25T17:23:50.316Z,22.08
2019-04-25T17:25:25.092Z,22.04
2019-04-25T17:26:59.334Z,22.01
2019-04-25T17:28:35.248Z,21.98
2019-04-25T17:30:11.690Z,21.94
2019-04-25T17:31:59.421Z,21.89
2019-04-25T17:33:44.482Z,21.84
2019-04-25T17:35:26.479Z,21.76
2019-04-25T17:37:17.335Z,21.70
2019-04-25T17:38:53.202Z,21.66
2019-04-25T17:40:32.794Z,21.62
2019-04-25T17:42:08.097Z,21.57
2019-04-25T17:43:42.421Z,21.52
2019-04-25T17:45:18.287Z,21.48
2019-04-25T17:46:52.505Z,21.47
2019-04-25T17:48:26.740Z,21.44
2019-04-25T17:50:01.026Z,21.41
2019-04-25T17:51:35.263Z,21.38
2019-04-25T17:53:09.488Z,21.33
2019-04-25T17:54:43.697Z,21.28
2019-04-25T17:56:18.096Z,21.22
2019-04-25T17:57:52.321Z,21.14
2019-04-25T17:59:26.581Z,21.07
2019-04-25T18:01:00.873Z,20.98
2019-04-25T18:02:35.100Z,20.92
2019-04-25T18:04:09.326Z,20.86
2019-04-25T18:05:44.565Z,20.36
2019-04-25T18:07:18.883Z,20.71
2019-04-25T18:08:53.075Z,20.66
2019-04-25T18:10:27.563Z,20.60
2019-04-25T18:12:01.820Z,20.58
2019-04-25T18:13:38.500Z,20.55
2019-04-25T18:15:13.784Z,20.48
2019-04-25T18:16:49.382Z,20.43
2019-04-25T18:18:41.437Z,20.33
2019-04-25T18:20:20.391Z,20.22
2019-04-25T18:21:56.257Z,20.12
2019-04-25T18:23:44.001Z,20.06
2019-04-25T18:25:31.812Z,20.04
2019-04-25T18:27:19.621Z,20.02
2019-04-25T18:29:07.486Z,19.99
2019-04-25T18:30:43.249Z,19.99
2019-04-25T18:32:17.792Z,20.00
2019-04-25T18:33:53.672Z,20.00
2019-04-25T18:35:30.081Z,20.01
2019-04-25T18:37:06.380Z,20.01
2019-04-25T18:38:44.741Z,20.01
2019-04-25T18:40:32.796Z,20.01
2019-04-25T18:42:24.680Z,20.00
2019-04-25T18:44:00.545Z,19.96
2019-04-25T18:45:37.470Z,19.94
2019-04-25T18:47:12.332Z,19.91
2019-04-25T18:48:46.975Z,19.90
2019-04-25T18:50:22.860Z,19.92
2019-04-25T18:51:58.811Z,19.94
2019-04-25T18:53:40.966Z,19.94
2019-04-25T18:55:19.895Z,19.94
2019-04-25T18:57:04.309Z,19.92
2019-04-25T18:58:40.165Z,19.89
2019-04-25T19:00:19.867Z,19.84
2019-04-25T19:02:07.280Z,19.76
2019-04-25T19:03:55.216Z,19.66
2019-04-25T19:05:31.068Z,19.62
2019-04-25T19:07:05.760Z,19.60
2019-04-25T19:08:40.829Z,19.62
2019-04-25T19:10:16.668Z,19.61
2019-04-25T19:11:51.341Z,19.55
2019-04-25T19:13:25.892Z,19.47
2019-04-25T19:15:00.114Z,19.39
2019-04-25T19:16:35.979Z,19.33
2019-04-25T19:18:10.421Z,19.25
2019-04-25T19:19:45.589Z,19.19
2019-04-25T19:21:20.110Z,19.17
2019-04-25T19:22:54.329Z,19.12
2019-04-25T19:24:28.641Z,19.03
2019-04-25T19:26:03.005Z,19.02
2019-04-25T19:27:37.232Z,19.03
2019-04-25T19:29:11.467Z,19.03
2019-04-25T19:30:45.756Z,19.02
2019-04-25T19:32:20.016Z,18.98
2019-04-25T19:33:54.308Z,18.89
2019-04-25T19:35:28.523Z,18.82
2019-04-25T19:37:02.826Z,18.77
2019-04-25T19:38:37.099Z,18.72
2019-04-25T19:40:25.669Z,18.71
2019-04-25T19:42:17.757Z,18.68
2019-04-25T19:43:53.653Z,18.66
2019-04-25T19:45:27.988Z,18.66
2019-04-25T19:47:03.836Z,18.62
2019-04-25T19:48:38.063Z,18.58
2019-04-25T19:50:12.432Z,18.55
2019-04-25T19:51:47.265Z,18.49
2019-04-25T19:53:21.760Z,18.46
2019-04-25T19:54:55.980Z,18.43
2019-04-25T19:56:30.308Z,18.40
2019-04-25T19:58:04.936Z,18.33
2019-04-25T19:59:40.743Z,18.26
2019-04-25T20:01:15.077Z,18.21
2019-04-25T20:02:51.005Z,18.19
2019-04-25T20:04:32.945Z,18.15
2019-04-25T20:06:10.277Z,18.06
2019-04-25T20:07:51.284Z,18.00
2019-04-25T20:09:44.858Z,17.95
2019-04-25T20:11:21.561Z,17.92
2019-04-25T20:12:55.864Z,17.91
2019-04-25T20:14:30.077Z,17.90
2019-04-25T20:16:04.367Z,17.90
2019-04-25T20:17:38.646Z,17.91
2019-04-25T20:19:12.850Z,17.93
2019-04-25T20:20:47.796Z,17.94
2019-04-25T20:22:22.320Z,17.94
2019-04-25T20:23:56.550Z,17.96
2019-04-25T20:25:30.781Z,17.96
2019-04-25T20:27:05.073Z,17.92
2019-04-25T20:28:39.358Z,17.90
2019-04-25T20:30:14.456Z,17.87
2019-04-25T20:31:48.696Z,17.83
2019-04-25T20:33:22.881Z,17.80
2019-04-25T20:34:57.225Z,17.71
2019-04-25T20:36:31.444Z,17.66
2019-04-25T20:38:05.653Z,17.64